createdAt,value
2022-09-07T00:00:15.000Z,5
2022-09-07T00:01:31.000Z,5
2022-09-07T00:02:47.000Z,5
2022-09-07T00:04:03.000Z,5
2022-09-07T00:05:20.000Z,5
2022-09-07T00:06:36.000Z,5
2022-09-07T00:07:52.000Z,5
2022-09-07T00:09:08.000Z,5
2022-09-07T00:10:25.000Z,5
2022-09-07T00:11:41.000Z,5
2022-09-07T00:12:57.000Z,5
2022-09-07T00:14:13.000Z,5
2022-09-07T00:15:29.000Z,5
2022-09-07T00:16:45.000Z,5
2022-09-07T00:18:01.000Z,5
2022-09-07T00:19:17.000Z,5
2022-09-07T00:20:33.000Z,5
2022-09-07T00:21:50.000Z,5
2022-09-07T00:23:06.000Z,5
2022-09-07T00:24:22.000Z,5
2022-09-07T00:25:38.000Z,5
2022-09-07T00:26:55.000Z,5
2022-09-07T00:28:11.000Z,5
2022-09-07T00:29:27.000Z,5
2022-09-07T00:30:43.000Z,5
2022-09-07T00:31:59.000Z,5
2022-09-07T00:33:15.000Z,5
2022-09-07T00:34:31.000Z,5
2022-09-07T00:35:47.000Z,5
2022-09-07T00:37:03.000Z,5
2022-09-07T00:38:20.000Z,5
2022-09-07T00:39:36.000Z,5
2022-09-07T00:40:52.000Z,5
2022-09-07T00:42:08.000Z,5
2022-09-07T00:43:25.000Z,5
2022-09-07T00:44:41.000Z,0
2022-09-07T00:45:57.000Z,0
2022-09-07T00:47:13.000Z,0
2022-09-07T00:48:30.000Z,0
2022-09-07T00:49:45.000Z,5
2022-09-07T00:51:01.000Z,5
2022-09-07T00:52:17.000Z,5
2022-09-07T00:53:33.000Z,5
2022-09-07T00:54:50.000Z,5
2022-09-07T00:56:06.000Z,5
2022-09-07T00:57:22.000Z,5
2022-09-07T00:58:38.000Z,5
2022-09-07T00:59:55.000Z,5
2022-09-07T01:01:11.000Z,5
2022-09-07T01:02:27.000Z,5
2022-09-07T01:03:43.000Z,5
2022-09-07T01:05:00.000Z,5
2022-09-07T01:06:15.000Z,5
2022-09-07T01:07:31.000Z,5
2022-09-07T01:08:47.000Z,5
2022-09-07T01:10:04.000Z,5
2022-09-07T01:11:20.000Z,5
2022-09-07T01:12:35.000Z,5
2022-09-07T01:13:51.000Z,5
2022-09-07T01:15:08.000Z,5
2022-09-07T01:16:24.000Z,5
2022-09-07T01:17:40.000Z,5
2022-09-07T01:18:56.000Z,5
2022-09-07T01:20:12.000Z,5
2022-09-07T01:21:29.000Z,5
2022-09-07T01:22:45.000Z,5
2022-09-07T01:24:01.000Z,5
2022-09-07T01:25:17.000Z,0
2022-09-07T01:26:34.000Z,5
2022-09-07T01:27:50.000Z,5
2022-09-07T01:29:05.000Z,5
2022-09-07T01:30:21.000Z,5
2022-09-07T01:31:38.000Z,5
2022-09-07T01:32:54.000Z,5
2022-09-07T01:34:10.000Z,5
2022-09-07T01:35:26.000Z,5
2022-09-07T01:36:42.000Z,5
2022-09-07T01:37:59.000Z,5
2022-09-07T01:39:15.000Z,5
2022-09-07T01:40:31.000Z,11
2022-09-07T01:41:47.000Z,5
2022-09-07T01:43:04.000Z,5
2022-09-07T01:44:20.000Z,5
2022-09-07T01:45:35.000Z,5
2022-09-07T01:46:51.000Z,5
2022-09-07T01:48:08.000Z,5
2022-09-07T01:49:24.000Z,5
2022-09-07T01:50:40.000Z,5
2022-09-07T01:51:56.000Z,5
2022-09-07T01:53:13.000Z,5
2022-09-07T01:54:29.000Z,5
2022-09-07T01:55:45.000Z,5
2022-09-07T01:57:01.000Z,5
2022-09-07T01:58:17.000Z,5
2022-09-07T01:59:34.000Z,5
2022-09-07T02:00:50.000Z,5
2022-09-07T02:02:05.000Z,5
2022-09-07T02:03:21.000Z,5
2022-09-07T02:04:38.000Z,5
2022-09-07T02:05:54.000Z,5
2022-09-07T02:07:10.000Z,5
2022-09-07T02:08:26.000Z,5
2022-09-07T02:09:43.000Z,5
2022-09-07T02:10:59.000Z,5
2022-09-07T02:12:15.000Z,5
2022-09-07T02:13:31.000Z,5
2022-09-07T02:14:48.000Z,5
2022-09-07T02:16:04.000Z,5
2022-09-07T02:17:20.000Z,5
2022-09-07T02:18:35.000Z,5
2022-09-07T02:19:51.000Z,5
2022-09-07T02:21:08.000Z,5
2022-09-07T02:22:24.000Z,5
2022-09-07T02:23:40.000Z,5
2022-09-07T02:24:56.000Z,5
2022-09-07T02:26:13.000Z,5
2022-09-07T02:27:29.000Z,5
2022-09-07T02:28:45.000Z,5
2022-09-07T02:30:01.000Z,5
2022-09-07T02:31:18.000Z,5
2022-09-07T02:32:34.000Z,5
2022-09-07T02:33:50.000Z,5
2022-09-07T02:35:05.000Z,11
2022-09-07T02:36:22.000Z,5
2022-09-07T02:37:38.000Z,5
2022-09-07T02:38:54.000Z,5
2022-09-07T02:40:10.000Z,5
2022-09-07T02:41:26.000Z,5
2022-09-07T02:42:43.000Z,5
2022-09-07T02:43:59.000Z,5
2022-09-07T02:45:15.000Z,5
2022-09-07T02:46:31.000Z,5
2022-09-07T02:47:48.000Z,5
2022-09-07T02:49:04.000Z,5
2022-09-07T02:50:20.000Z,11
2022-09-07T02:51:35.000Z,11
2022-09-07T02:52:52.000Z,5
2022-09-07T02:54:08.000Z,5
2022-09-07T02:55:24.000Z,5
2022-09-07T02:56:40.000Z,5
2022-09-07T02:57:57.000Z,5
2022-09-07T02:59:13.000Z,5
2022-09-07T03:00:29.000Z,5
2022-09-07T03:01:45.000Z,5
2022-09-07T03:03:01.000Z,5
2022-09-07T03:04:18.000Z,5
2022-09-07T03:05:34.000Z,5
2022-09-07T03:06:50.000Z,5
2022-09-07T03:08:05.000Z,5
2022-09-07T03:09:22.000Z,5
2022-09-07T03:10:38.000Z,5
2022-09-07T03:11:54.000Z,5
2022-09-07T03:13:10.000Z,5
2022-09-07T03:14:27.000Z,5
2022-09-07T03:15:43.000Z,5
2022-09-07T03:16:59.000Z,5
2022-09-07T03:18:15.000Z,5
2022-09-07T03:19:31.000Z,5
2022-09-07T03:20:48.000Z,5
2022-09-07T03:22:04.000Z,5
2022-09-07T03:23:20.000Z,5
2022-09-07T03:24:35.000Z,5
2022-09-07T03:25:52.000Z,5
2022-09-07T03:27:08.000Z,5
2022-09-07T03:28:24.000Z,5
2022-09-07T03:29:40.000Z,5
2022-09-07T03:30:57.000Z,5
2022-09-07T03:32:13.000Z,5
2022-09-07T03:33:29.000Z,5
2022-09-07T03:34:45.000Z,5
2022-09-07T03:36:02.000Z,5
2022-09-07T03:37:18.000Z,5
2022-09-07T03:38:34.000Z,5
2022-09-07T03:39:50.000Z,5
2022-09-07T03:41:06.000Z,5
2022-09-07T03:42:22.000Z,5
2022-09-07T03:43:38.000Z,5
2022-09-07T03:44:54.000Z,5
2022-09-07T03:46:10.000Z,5
2022-09-07T03:47:27.000Z,5
2022-09-07T03:48:43.000Z,5
2022-09-07T03:49:59.000Z,5
2022-09-07T03:51:15.000Z,5
2022-09-07T03:52:32.000Z,5
2022-09-07T03:53:48.000Z,5
2022-09-07T03:55:04.000Z,5
2022-09-07T03:56:20.000Z,5
2022-09-07T03:57:36.000Z,5
2022-09-07T03:58:52.000Z,5
2022-09-07T04:00:08.000Z,5
2022-09-07T04:01:24.000Z,5
2022-09-07T04:02:40.000Z,5
2022-09-07T04:03:57.000Z,5
2022-09-07T04:05:13.000Z,5
2022-09-07T04:06:29.000Z,0
2022-09-07T04:07:45.000Z,0
2022-09-07T04:09:02.000Z,0
2022-09-07T04:10:18.000Z,0
2022-09-07T04:11:34.000Z,0
2022-09-07T04:12:50.000Z,0
2022-09-07T04:14:06.000Z,0
2022-09-07T04:15:22.000Z,0
2022-09-07T04:16:38.000Z,0
2022-09-07T04:17:54.000Z,0
2022-09-07T04:19:11.000Z,0
2022-09-07T04:20:26.000Z,0
2022-09-07T04:21:41.000Z,0
2022-09-07T04:22:57.000Z,0
2022-09-07T04:24:13.000Z,0
2022-09-07T04:25:28.000Z,0
2022-09-07T04:26:44.000Z,0
2022-09-07T04:28:00.000Z,0
2022-09-07T04:29:17.000Z,5
2022-09-07T04:30:33.000Z,5
2022-09-07T04:31:49.000Z,5
2022-09-07T04:33:05.000Z,5
2022-09-07T04:34:21.000Z,0
2022-09-07T04:35:38.000Z,0
2022-09-07T04:36:54.000Z,0
2022-09-07T04:38:10.000Z,0
2022-09-07T04:39:26.000Z,0
2022-09-07T04:40:43.000Z,0
2022-09-07T04:41:58.000Z,0
2022-09-07T04:43:14.000Z,0
2022-09-07T04:44:30.000Z,0
2022-09-07T04:45:47.000Z,5
2022-09-07T04:47:03.000Z,5
2022-09-07T04:48:19.000Z,5
2022-09-07T04:49:35.000Z,5
2022-09-07T04:50:51.000Z,5
2022-09-07T04:52:08.000Z,5
2022-09-07T04:53:24.000Z,11
2022-09-07T04:54:40.000Z,11
2022-09-07T04:55:56.000Z,11
2022-09-07T04:57:13.000Z,11
2022-09-07T04:58:28.000Z,16
2022-09-07T04:59:44.000Z,16
2022-09-07T05:01:00.000Z,16
2022-09-07T05:02:17.000Z,22
2022-09-07T05:03:33.000Z,22
2022-09-07T05:04:49.000Z,22
2022-09-07T05:06:05.000Z,28
2022-09-07T05:07:22.000Z,28
2022-09-07T05:08:38.000Z,33
2022-09-07T05:09:54.000Z,33
2022-09-07T05:11:10.000Z,33
2022-09-07T05:12:26.000Z,39
2022-09-07T05:13:43.000Z,39
2022-09-07T05:14:58.000Z,39
2022-09-07T05:16:14.000Z,45
2022-09-07T05:17:30.000Z,45
2022-09-07T05:18:47.000Z,45
2022-09-07T05:20:03.000Z,50
2022-09-07T05:21:19.000Z,50
2022-09-07T05:22:35.000Z,56
2022-09-07T05:23:52.000Z,56
2022-09-07T05:25:08.000Z,56
2022-09-07T05:26:24.000Z,61
2022-09-07T05:27:39.000Z,61
2022-09-07T05:28:56.000Z,67
2022-09-07T05:30:12.000Z,67
2022-09-07T05:31:28.000Z,67
2022-09-07T05:32:44.000Z,73
2022-09-07T05:34:00.000Z,73
2022-09-07T05:35:17.000Z,73
2022-09-07T05:36:33.000Z,78
2022-09-07T05:37:49.000Z,78
2022-09-07T05:39:05.000Z,84
2022-09-07T05:40:22.000Z,90
2022-09-07T05:41:37.000Z,90
2022-09-07T05:42:52.000Z,95
2022-09-07T05:44:07.000Z,101
2022-09-07T05:45:23.000Z,106
2022-09-07T05:46:39.000Z,112
2022-09-07T05:47:55.000Z,112
2022-09-07T05:49:11.000Z,118
2022-09-07T05:50:28.000Z,123
2022-09-07T05:51:44.000Z,123
2022-09-07T05:53:00.000Z,129
2022-09-07T05:54:16.000Z,129
2022-09-07T05:55:33.000Z,129
2022-09-07T05:56:49.000Z,135
2022-09-07T05:58:05.000Z,135
2022-09-07T05:59:21.000Z,135
2022-09-07T06:00:37.000Z,140
2022-09-07T06:01:53.000Z,140
2022-09-07T06:03:09.000Z,140
2022-09-07T06:04:25.000Z,140
2022-09-07T06:05:41.000Z,151
2022-09-07T06:06:58.000Z,163
2022-09-07T06:08:14.000Z,163
2022-09-07T06:09:30.000Z,157
2022-09-07T06:10:45.000Z,157
2022-09-07T06:12:01.000Z,180
2022-09-07T06:13:17.000Z,174
2022-09-07T06:14:33.000Z,168
2022-09-07T06:15:49.000Z,180
2022-09-07T06:17:06.000Z,180
2022-09-07T06:18:21.000Z,180
2022-09-07T06:19:36.000Z,180
2022-09-07T06:20:52.000Z,185
2022-09-07T06:22:09.000Z,185
2022-09-07T06:23:25.000Z,185
2022-09-07T06:24:41.000Z,196
2022-09-07T06:25:57.000Z,196
2022-09-07T06:27:14.000Z,191
2022-09-07T06:28:30.000Z,191
2022-09-07T06:29:46.000Z,196
2022-09-07T06:31:02.000Z,196
2022-09-07T06:32:18.000Z,196
2022-09-07T06:33:35.000Z,208
2022-09-07T06:34:51.000Z,202
2022-09-07T06:36:07.000Z,208
2022-09-07T06:37:22.000Z,213
2022-09-07T06:38:39.000Z,213
2022-09-07T06:39:55.000Z,219
2022-09-07T06:41:11.000Z,225
2022-09-07T06:42:27.000Z,225
2022-09-07T06:43:44.000Z,225
2022-09-07T06:44:59.000Z,230
2022-09-07T06:46:14.000Z,236
2022-09-07T06:47:30.000Z,241
2022-09-07T06:48:46.000Z,230
2022-09-07T06:50:02.000Z,230
2022-09-07T06:51:18.000Z,230
2022-09-07T06:52:33.000Z,225
2022-09-07T06:53:50.000Z,225
2022-09-07T06:55:06.000Z,230
2022-09-07T06:56:22.000Z,236
2022-09-07T06:57:38.000Z,241
2022-09-07T06:58:54.000Z,247
2022-09-07T07:00:11.000Z,258
2022-09-07T07:01:27.000Z,247
2022-09-07T07:02:43.000Z,258
2022-09-07T07:03:59.000Z,258
2022-09-07T07:05:16.000Z,247
2022-09-07T07:06:32.000Z,230
2022-09-07T07:07:48.000Z,230
2022-09-07T07:09:03.000Z,225
2022-09-07T07:10:20.000Z,230
2022-09-07T07:11:36.000Z,225
2022-09-07T07:12:52.000Z,230
2022-09-07T07:14:08.000Z,247
2022-09-07T07:15:24.000Z,247
2022-09-07T07:16:39.000Z,247
2022-09-07T07:17:55.000Z,253
2022-09-07T07:19:11.000Z,264
2022-09-07T07:20:27.000Z,264
2022-09-07T07:21:42.000Z,281
2022-09-07T07:22:58.000Z,286
2022-09-07T07:24:14.000Z,286
2022-09-07T07:25:30.000Z,286
2022-09-07T07:26:47.000Z,286
2022-09-07T07:28:03.000Z,286
2022-09-07T07:29:19.000Z,286
2022-09-07T07:30:35.000Z,281
2022-09-07T07:31:52.000Z,275
2022-09-07T07:33:08.000Z,275
2022-09-07T07:34:24.000Z,286
2022-09-07T07:35:40.000Z,292
2022-09-07T07:36:57.000Z,303
2022-09-07T07:38:12.000Z,303
2022-09-07T07:39:28.000Z,303
2022-09-07T07:40:44.000Z,309
2022-09-07T07:42:01.000Z,309
2022-09-07T07:43:17.000Z,326
2022-09-07T07:44:33.000Z,348
2022-09-07T07:45:49.000Z,371
2022-09-07T07:47:04.000Z,388
2022-09-07T07:48:20.000Z,393
2022-09-07T07:49:35.000Z,393
2022-09-07T07:50:50.000Z,388
2022-09-07T07:52:06.000Z,393
2022-09-07T07:53:23.000Z,388
2022-09-07T07:54:39.000Z,405
2022-09-07T07:55:55.000Z,410
2022-09-07T07:57:11.000Z,421
2022-09-07T07:58:28.000Z,416
2022-09-07T07:59:44.000Z,450
2022-09-07T08:01:00.000Z,455
2022-09-07T08:02:16.000Z,405
2022-09-07T08:03:33.000Z,393
2022-09-07T08:04:49.000Z,416
2022-09-07T08:06:05.000Z,393
2022-09-07T08:07:20.000Z,376
2022-09-07T08:08:37.000Z,331
2022-09-07T08:09:53.000Z,343
2022-09-07T08:11:09.000Z,376
2022-09-07T08:12:25.000Z,382
2022-09-07T08:13:41.000Z,376
2022-09-07T08:14:58.000Z,331
2022-09-07T08:16:13.000Z,348
2022-09-07T08:17:28.000Z,376
2022-09-07T08:18:44.000Z,388
2022-09-07T08:20:01.000Z,388
2022-09-07T08:21:17.000Z,382
2022-09-07T08:22:33.000Z,405
2022-09-07T08:23:48.000Z,410
2022-09-07T08:25:04.000Z,410
2022-09-07T08:26:20.000Z,427
2022-09-07T08:27:36.000Z,444
2022-09-07T08:28:52.000Z,461
2022-09-07T08:30:09.000Z,461
2022-09-07T08:31:25.000Z,450
2022-09-07T08:32:41.000Z,450
2022-09-07T08:33:57.000Z,495
2022-09-07T08:35:14.000Z,534
2022-09-07T08:36:30.000Z,545
2022-09-07T08:37:46.000Z,551
2022-09-07T08:39:02.000Z,545
2022-09-07T08:40:18.000Z,523
2022-09-07T08:41:34.000Z,523
2022-09-07T08:42:50.000Z,534
2022-09-07T08:44:06.000Z,523
2022-09-07T08:45:22.000Z,540
2022-09-07T08:46:39.000Z,517
2022-09-07T08:47:55.000Z,461
2022-09-07T08:49:11.000Z,495
2022-09-07T08:50:26.000Z,551
2022-09-07T08:51:42.000Z,517
2022-09-07T08:52:57.000Z,630
2022-09-07T08:54:12.000Z,658
2022-09-07T08:55:28.000Z,613
2022-09-07T08:56:45.000Z,613
2022-09-07T08:58:01.000Z,641
2022-09-07T08:59:17.000Z,630
2022-09-07T09:00:33.000Z,601
2022-09-07T09:01:50.000Z,585
2022-09-07T09:03:06.000Z,585
2022-09-07T09:04:22.000Z,579
2022-09-07T09:05:38.000Z,579
2022-09-07T09:06:54.000Z,528
2022-09-07T09:08:11.000Z,556
2022-09-07T09:09:27.000Z,556
2022-09-07T09:10:42.000Z,579
2022-09-07T09:11:58.000Z,562
2022-09-07T09:13:15.000Z,545
2022-09-07T09:14:31.000Z,517
2022-09-07T09:15:47.000Z,545
2022-09-07T09:17:03.000Z,624
2022-09-07T09:18:20.000Z,720
2022-09-07T09:19:35.000Z,798
2022-09-07T09:20:50.000Z,658
2022-09-07T09:22:05.000Z,562
2022-09-07T09:23:21.000Z,534
2022-09-07T09:24:37.000Z,573
2022-09-07T09:25:53.000Z,607
2022-09-07T09:27:09.000Z,618
2022-09-07T09:28:26.000Z,624
2022-09-07T09:29:42.000Z,556
2022-09-07T09:30:58.000Z,556
2022-09-07T09:32:14.000Z,506
2022-09-07T09:33:31.000Z,455
2022-09-07T09:34:47.000Z,376
2022-09-07T09:36:03.000Z,376
2022-09-07T09:37:19.000Z,478
2022-09-07T09:38:35.000Z,534
2022-09-07T09:39:51.000Z,545
2022-09-07T09:41:07.000Z,568
2022-09-07T09:42:22.000Z,601
2022-09-07T09:43:38.000Z,613
2022-09-07T09:44:55.000Z,607
2022-09-07T09:46:11.000Z,585
2022-09-07T09:47:27.000Z,596
2022-09-07T09:48:43.000Z,601
2022-09-07T09:50:00.000Z,618
2022-09-07T09:51:16.000Z,630
2022-09-07T09:52:32.000Z,641
2022-09-07T09:53:48.000Z,658
2022-09-07T09:55:05.000Z,663
2022-09-07T09:56:21.000Z,658
2022-09-07T09:57:37.000Z,658
2022-09-07T09:58:52.000Z,624
2022-09-07T10:00:08.000Z,601
2022-09-07T10:01:25.000Z,585
2022-09-07T10:02:41.000Z,579
2022-09-07T10:03:57.000Z,568
2022-09-07T10:05:13.000Z,556
2022-09-07T10:06:30.000Z,540
2022-09-07T10:07:46.000Z,506
2022-09-07T10:09:02.000Z,478
2022-09-07T10:10:18.000Z,427
2022-09-07T10:11:35.000Z,393
2022-09-07T10:12:51.000Z,393
2022-09-07T10:14:07.000Z,399
2022-09-07T10:15:22.000Z,433
2022-09-07T10:16:39.000Z,466
2022-09-07T10:17:55.000Z,495
2022-09-07T10:19:11.000Z,528
2022-09-07T10:20:27.000Z,551
2022-09-07T10:21:43.000Z,562
2022-09-07T10:23:00.000Z,568
2022-09-07T10:24:16.000Z,607
2022-09-07T10:25:32.000Z,596
2022-09-07T10:26:48.000Z,579
2022-09-07T10:28:05.000Z,573
2022-09-07T10:29:21.000Z,568
2022-09-07T10:30:37.000Z,568
2022-09-07T10:31:53.000Z,579
2022-09-07T10:33:09.000Z,585
2022-09-07T10:34:25.000Z,585
2022-09-07T10:35:41.000Z,585
2022-09-07T10:36:57.000Z,579
2022-09-07T10:38:13.000Z,562
2022-09-07T10:39:30.000Z,556
2022-09-07T10:40:46.000Z,545
2022-09-07T10:42:02.000Z,517
2022-09-07T10:43:18.000Z,495
2022-09-07T10:44:35.000Z,478
2022-09-07T10:45:51.000Z,489
2022-09-07T10:47:07.000Z,506
2022-09-07T10:48:23.000Z,511
2022-09-07T10:49:39.000Z,506
2022-09-07T10:50:55.000Z,489
2022-09-07T10:52:11.000Z,472
2022-09-07T10:53:27.000Z,455
2022-09-07T10:54:44.000Z,433
2022-09-07T10:56:00.000Z,399
2022-09-07T10:57:16.000Z,371
2022-09-07T10:58:32.000Z,354
2022-09-07T10:59:48.000Z,337
2022-09-07T11:01:05.000Z,331
2022-09-07T11:02:21.000Z,337
2022-09-07T11:03:37.000Z,348
2022-09-07T11:04:53.000Z,360
2022-09-07T11:06:09.000Z,371
2022-09-07T11:07:25.000Z,376
2022-09-07T11:08:41.000Z,376
2022-09-07T11:09:57.000Z,376
2022-09-07T11:11:14.000Z,376
2022-09-07T11:12:30.000Z,382
2022-09-07T11:13:46.000Z,393
2022-09-07T11:15:02.000Z,393
2022-09-07T11:16:19.000Z,399
2022-09-07T11:17:35.000Z,421
2022-09-07T11:18:51.000Z,461
2022-09-07T11:20:07.000Z,495
2022-09-07T11:21:23.000Z,517
2022-09-07T11:22:39.000Z,528
2022-09-07T11:23:55.000Z,534
2022-09-07T11:25:11.000Z,528
2022-09-07T11:26:27.000Z,534
2022-09-07T11:27:44.000Z,545
2022-09-07T11:29:00.000Z,551
2022-09-07T11:31:32.000Z,573
2022-09-07T11:32:49.000Z,573
2022-09-07T11:34:05.000Z,568
2022-09-07T11:35:21.541Z,568
2022-09-07T11:36:37.000Z,573
2022-09-07T11:37:54.000Z,590
2022-09-07T11:39:09.000Z,585
2022-09-07T11:40:25.000Z,596
2022-09-07T11:41:41.000Z,596
2022-09-07T11:42:57.000Z,596
2022-09-07T11:44:14.000Z,618
2022-09-07T11:45:30.000Z,635
2022-09-07T11:46:46.000Z,630
2022-09-07T11:48:02.000Z,579
2022-09-07T11:49:19.000Z,511
2022-09-07T11:50:35.000Z,478
2022-09-07T11:51:51.000Z,472
2022-09-07T11:53:07.000Z,478
2022-09-07T11:54:24.000Z,489
2022-09-07T11:55:39.000Z,511
2022-09-07T11:56:55.000Z,556
2022-09-07T11:58:11.000Z,624
2022-09-07T11:59:28.000Z,697
2022-09-07T12:00:44.000Z,787
2022-09-07T12:02:00.000Z,855
2022-09-07T12:03:16.000Z,860
2022-09-07T12:04:32.000Z,866
2022-09-07T12:05:49.000Z,849
2022-09-07T12:07:05.000Z,815
2022-09-07T12:08:21.000Z,781
2022-09-07T12:09:37.000Z,770
2022-09-07T12:10:54.000Z,708
2022-09-07T12:12:09.000Z,680
2022-09-07T12:13:25.000Z,663
2022-09-07T12:14:41.000Z,669
2022-09-07T12:15:58.000Z,663
2022-09-07T12:17:14.000Z,635
2022-09-07T12:18:30.000Z,635
2022-09-07T12:19:46.000Z,680
2022-09-07T12:21:03.000Z,703
2022-09-07T12:22:19.000Z,720
2022-09-07T12:23:35.000Z,731
2022-09-07T12:24:51.000Z,787
2022-09-07T12:26:07.000Z,838
2022-09-07T12:27:24.000Z,821
2022-09-07T12:28:39.000Z,781
2022-09-07T12:29:55.000Z,765
2022-09-07T12:31:11.000Z,787
2022-09-07T12:32:28.000Z,826
2022-09-07T12:33:44.000Z,787
2022-09-07T12:35:00.000Z,770
2022-09-07T12:36:16.000Z,725
2022-09-07T12:37:33.000Z,736
2022-09-07T12:38:49.000Z,753
2022-09-07T12:40:05.000Z,776
2022-09-07T12:41:21.000Z,776
2022-09-07T12:42:37.000Z,759
2022-09-07T12:43:54.000Z,708
2022-09-07T12:45:09.000Z,691
2022-09-07T12:46:25.000Z,663
2022-09-07T12:47:41.000Z,708
2022-09-07T12:48:58.000Z,680
2022-09-07T12:50:14.000Z,641
2022-09-07T12:51:30.000Z,669
2022-09-07T12:52:46.000Z,725
2022-09-07T12:54:03.000Z,714
2022-09-07T12:55:19.000Z,641
2022-09-07T12:56:35.000Z,568
2022-09-07T12:57:51.000Z,556
2022-09-07T12:59:08.000Z,579
2022-09-07T13:00:24.000Z,596
2022-09-07T13:01:39.000Z,568
2022-09-07T13:02:55.000Z,573
2022-09-07T13:04:11.000Z,573
2022-09-07T13:05:28.000Z,562
2022-09-07T13:06:44.000Z,585
2022-09-07T13:08:00.000Z,607
2022-09-07T13:09:16.000Z,658
2022-09-07T13:10:33.000Z,630
2022-09-07T13:11:49.000Z,596
2022-09-07T13:13:05.000Z,646
2022-09-07T13:14:21.000Z,663
2022-09-07T13:15:38.000Z,663
2022-09-07T13:16:54.000Z,641
2022-09-07T13:18:09.000Z,663
2022-09-07T13:19:25.000Z,725
2022-09-07T13:20:42.000Z,697
2022-09-07T13:21:58.000Z,714
2022-09-07T13:23:14.000Z,675
2022-09-07T13:24:30.000Z,691
2022-09-07T13:25:46.000Z,680
2022-09-07T13:27:03.000Z,691
2022-09-07T13:28:19.000Z,753
2022-09-07T13:29:35.000Z,787
2022-09-07T13:30:51.000Z,765
2022-09-07T13:32:08.000Z,776
2022-09-07T13:33:24.000Z,753
2022-09-07T13:34:39.000Z,748
2022-09-07T13:35:55.000Z,748
2022-09-07T13:37:12.000Z,770
2022-09-07T13:38:28.000Z,826
2022-09-07T13:39:44.000Z,1096
2022-09-07T13:41:00.000Z,1102
2022-09-07T13:42:17.000Z,1158
2022-09-07T13:43:33.000Z,1299
2022-09-07T13:44:49.000Z,1158
2022-09-07T13:46:05.000Z,995
2022-09-07T13:47:21.000Z,1254
2022-09-07T13:48:38.000Z,770
2022-09-07T13:49:54.000Z,1164
2022-09-07T13:51:09.000Z,911
2022-09-07T13:52:25.000Z,1136
2022-09-07T13:53:42.000Z,1327
2022-09-07T13:54:58.000Z,1468
2022-09-07T13:56:14.000Z,1496
2022-09-07T13:57:30.000Z,1468
2022-09-07T13:58:46.000Z,1260
2022-09-07T14:00:02.000Z,1496
2022-09-07T14:01:18.000Z,1400
2022-09-07T14:02:34.000Z,1338
2022-09-07T14:03:51.000Z,1248
2022-09-07T14:05:07.000Z,1175
2022-09-07T14:06:23.000Z,1276
2022-09-07T14:07:39.000Z,1186
2022-09-07T14:08:55.000Z,1254
2022-09-07T14:10:12.000Z,1305
2022-09-07T14:11:28.000Z,1591
2022-09-07T14:12:44.000Z,1687
2022-09-07T14:14:00.000Z,1861
2022-09-07T14:15:16.000Z,1867
2022-09-07T14:16:32.000Z,2238
2022-09-07T14:17:48.000Z,2188
2022-09-07T14:19:04.000Z,2047
2022-09-07T14:20:21.000Z,1985
2022-09-07T14:21:37.000Z,1721
2022-09-07T14:22:53.000Z,1743
2022-09-07T14:24:09.000Z,1580
2022-09-07T14:25:26.000Z,1411
2022-09-07T14:26:42.000Z,1288
2022-09-07T14:27:58.000Z,1271
2022-09-07T14:29:14.000Z,1102
2022-09-07T14:30:30.000Z,1063
2022-09-07T14:31:46.000Z,1091
2022-09-07T14:33:02.000Z,1226
2022-09-07T14:34:18.000Z,1181
2022-09-07T14:35:34.000Z,1372
2022-09-07T14:36:51.000Z,1445
2022-09-07T14:38:07.000Z,1507
2022-09-07T14:39:23.000Z,1597
2022-09-07T14:40:39.000Z,1726
2022-09-07T14:41:56.000Z,1743
2022-09-07T14:43:12.000Z,1867
2022-09-07T14:44:28.000Z,1541
2022-09-07T14:45:44.000Z,1316
2022-09-07T14:47:01.000Z,1293
2022-09-07T14:48:17.000Z,1451
2022-09-07T14:49:32.000Z,1473
2022-09-07T14:50:48.000Z,1485
2022-09-07T14:52:04.000Z,1552
2022-09-07T14:53:21.000Z,1113
2022-09-07T14:54:37.000Z,843
2022-09-07T14:55:53.000Z,804
2022-09-07T14:57:09.000Z,781
2022-09-07T14:58:26.000Z,776
2022-09-07T14:59:42.000Z,776
2022-09-07T15:00:58.000Z,753
2022-09-07T15:02:14.000Z,703
2022-09-07T15:03:31.000Z,725
2022-09-07T15:04:47.000Z,714
2022-09-07T15:06:02.000Z,680
2022-09-07T15:07:18.000Z,517
2022-09-07T15:08:35.000Z,478
2022-09-07T15:09:51.000Z,478
2022-09-07T15:11:07.000Z,466
2022-09-07T15:12:23.000Z,500
2022-09-07T15:13:39.000Z,568
2022-09-07T15:14:56.000Z,551
2022-09-07T15:16:12.000Z,675
2022-09-07T15:17:28.000Z,714
2022-09-07T15:18:44.000Z,736
2022-09-07T15:20:01.000Z,686
2022-09-07T15:21:17.000Z,675
2022-09-07T15:22:32.000Z,663
2022-09-07T15:23:48.000Z,669
2022-09-07T15:25:05.000Z,663
2022-09-07T15:26:21.000Z,641
2022-09-07T15:27:37.000Z,613
2022-09-07T15:28:53.000Z,601
2022-09-07T15:30:10.000Z,601
2022-09-07T15:31:26.000Z,601
2022-09-07T15:32:42.000Z,601
2022-09-07T15:33:58.000Z,579
2022-09-07T15:35:14.000Z,573
2022-09-07T15:36:31.000Z,573
2022-09-07T15:37:47.000Z,562
2022-09-07T15:39:03.000Z,562
2022-09-07T15:40:18.000Z,568
2022-09-07T15:41:35.000Z,562
2022-09-07T15:42:51.000Z,534
2022-09-07T15:44:07.000Z,511
2022-09-07T15:45:23.000Z,478
2022-09-07T15:46:40.000Z,450
2022-09-07T15:47:56.000Z,444
2022-09-07T15:49:12.000Z,427
2022-09-07T15:50:28.000Z,405
2022-09-07T15:51:45.000Z,416
2022-09-07T15:53:01.000Z,455
2022-09-07T15:54:17.000Z,489
2022-09-07T15:55:33.000Z,495
2022-09-07T15:56:48.000Z,489
2022-09-07T15:58:05.000Z,478
2022-09-07T15:59:21.000Z,466
2022-09-07T16:00:37.000Z,461
2022-09-07T16:01:53.000Z,455
2022-09-07T16:03:10.000Z,461
2022-09-07T16:04:26.000Z,455
2022-09-07T16:05:42.000Z,450
2022-09-07T16:06:58.000Z,410
2022-09-07T16:08:15.000Z,388
2022-09-07T16:09:31.000Z,371
2022-09-07T16:10:47.000Z,348
2022-09-07T16:12:03.000Z,326
2022-09-07T16:13:19.000Z,303
2022-09-07T16:14:35.000Z,292
2022-09-07T16:15:51.000Z,286
2022-09-07T16:17:07.000Z,281
2022-09-07T16:18:23.000Z,281
2022-09-07T16:19:40.000Z,281
2022-09-07T16:20:56.000Z,281
2022-09-07T16:22:12.000Z,286
2022-09-07T16:23:28.000Z,286
2022-09-07T16:24:45.000Z,286
2022-09-07T16:26:01.000Z,281
2022-09-07T16:27:17.000Z,275
2022-09-07T16:28:33.000Z,270
2022-09-07T16:29:49.000Z,270
2022-09-07T16:31:05.000Z,264
2022-09-07T16:32:21.000Z,258
2022-09-07T16:33:37.000Z,258
2022-09-07T16:34:53.000Z,253
2022-09-07T16:36:10.000Z,247
2022-09-07T16:37:26.000Z,241
2022-09-07T16:38:42.000Z,241
2022-09-07T16:39:58.000Z,241
2022-09-07T16:41:15.000Z,247
2022-09-07T16:42:31.000Z,258
2022-09-07T16:43:47.000Z,281
2022-09-07T16:45:03.000Z,320
2022-09-07T16:46:19.000Z,343
2022-09-07T16:47:35.000Z,376
2022-09-07T16:48:51.000Z,382
2022-09-07T16:50:07.000Z,388
2022-09-07T16:51:24.000Z,399
2022-09-07T16:52:40.000Z,393
2022-09-07T16:53:56.000Z,405
2022-09-07T16:55:12.000Z,416
2022-09-07T16:56:28.000Z,427
2022-09-07T16:57:45.000Z,427
2022-09-07T16:59:01.000Z,416
2022-09-07T17:00:17.000Z,405
2022-09-07T17:01:33.000Z,393
2022-09-07T17:02:49.000Z,382
2022-09-07T17:04:05.000Z,365
2022-09-07T17:05:21.000Z,354
2022-09-07T17:06:37.000Z,343
2022-09-07T17:07:54.000Z,326
2022-09-07T17:09:10.000Z,309
2022-09-07T17:10:26.000Z,298
2022-09-07T17:11:42.000Z,292
2022-09-07T17:12:59.000Z,275
2022-09-07T17:14:15.000Z,241
2022-09-07T17:15:31.000Z,236
2022-09-07T17:16:47.000Z,230
2022-09-07T17:18:03.000Z,219
2022-09-07T17:19:19.000Z,202
2022-09-07T17:20:35.000Z,196
2022-09-07T17:21:51.000Z,191
2022-09-07T17:23:07.000Z,180
2022-09-07T17:24:24.000Z,185
2022-09-07T17:25:40.000Z,180
2022-09-07T17:26:56.000Z,174
2022-09-07T17:28:12.000Z,163
2022-09-07T17:29:29.000Z,163
2022-09-07T17:30:45.000Z,146
2022-09-07T17:32:01.000Z,129
2022-09-07T17:33:17.000Z,123
2022-09-07T17:34:34.000Z,106
2022-09-07T17:35:50.000Z,101
2022-09-07T17:37:05.000Z,90
2022-09-07T17:38:21.000Z,84
2022-09-07T17:39:37.000Z,78
2022-09-07T17:40:54.000Z,73
2022-09-07T17:42:10.000Z,67
2022-09-07T17:43:26.000Z,61
2022-09-07T17:44:42.000Z,56
2022-09-07T17:45:59.000Z,56
2022-09-07T17:47:15.000Z,50
2022-09-07T17:48:31.000Z,45